Terminal Aerodrome Forecast
Issued by NWS Atlanta, GA

Home | Current Version | Previous Version | Text Only | Print | Product List | Glossary On
Versions: 1 2 3 4 5 6 7 8 9 10 11 12 13 14 15 16 17 18 19 20 21 22 23 24 25 26 27 28 29 30 31 32 33 34 35 36 37 38 39 40
000
FTAK31 PAJN 010800 AAA
TAFAHN
TAF AMD
PAHN 010808Z 0108/0206 10004KT 6SM -RA BR SCT015 OVC040
      TEMPO 0108/0112 5SM -RA BR BKN007 OVC015
     FM011600 30004KT 6SM -SHRA BR SCT007 OVC015
     FM012100 VRB05KT P6SM -SHRA SCT015 BKN025 OVC050
     FM012300 11005KT P6SM VCSH SCT025 BKN050
      AMD LTD TO CLD VIS AND WIND=

USA.gov is the U.S. government's official web portal to all federal, state and local government web resources and services.